KMTN/MTN METAR and TAF weather

Enter ICAO airport designator
Station Type Date Time Source
KMTN METAR 2018/12/18 18:45 UTC NOAA

KMTN 181845Z 29009G18KT 10SM FEW200 08/M04 A3013


Station Type Date Time Source
KMTN Decoded METAR 2018/12/18 18:45 UTC NOAA

Baltimore / Martin, MD, United States (KMTN) 39-20N 076-25W
Dec 18, 2018 - 01:45 PM EST / 2018.12.18 1845 UTC
Wind: from the WNW (290 degrees) at 10 MPH (9 KT) gusting to 21 MPH (18 KT):0
Visibility: 10 mile(s):0
Sky conditions: mostly clear
Temperature: 46 F (8 C)
Dew Point: 24 F (-4 C)
Relative Humidity: 42%
Pressure (altimeter): 30.13 in. Hg (1020 hPa)
ob: KMTN 181845Z 29009G18KT 10SM FEW200 08/M04 A3013
cycle: 19

Station Type Date Time Source
KMTN TAF 2018/12/18 19:42 UTC NOAA

TAF
AMD KMTN 181839Z 1819/1918 27013G21KT P6SM SKC
FM182200 31004KT P6SM SKC
FM191500 20004KT P6SM FEW200


Example: see airport list